Time;durP1;ratioP1;P1;durP2;ratioP2;P2;SDS_P1;SDS_P2;PMS_P1;PMS_P2;Temp;Humidity;BMP_temperature;BMP_pressure;BME280_temperature;BME280_humidity;BME280_pressure;Samples;Min_cycle;Max_cycle;Signal;HPM_P1;HPM_P2
2023/05/19 00:00:59;;;;;;;12.77;11.03;;;;;;;15.95;100.00;101725.53;2071945;28;20256;-66
2023/05/19 00:02:00;;;;;;;13.10;11.57;;;;;;;15.99;100.00;101728.22;2076933;28;20241;-66
2023/05/19 00:03:01;;;;;;;14.43;11.30;;;;;;;16.00;100.00;101722.19;2072711;28;20464;-66
2023/05/19 00:04:04;;;;;;;14.90;11.40;;;;;;;14.88;100.00;101557.69;2065401;28;20190;-66
2023/05/19 00:05:05;;;;;;;11.83;10.57;;;;;;;15.92;100.00;101720.81;2071533;28;20437;-66
2023/05/19 00:06:09;;;;;;;14.50;11.30;;;;;;;15.89;100.00;101709.72;2066655;28;20435;-66
2023/05/19 00:07:10;;;;;;;14.13;11.20;;;;;;;15.89;100.00;101738.44;2064914;28;20205;-66
2023/05/19 00:08:11;;;;;;;13.63;10.60;;;;;;;15.87;100.00;101715.75;2067731;28;20483;-66
2023/05/19 00:09:11;;;;;;;13.80;11.07;;;;;;;15.88;100.00;101717.31;2072015;28;20650;-66
2023/05/19 00:10:12;;;;;;;15.17;11.27;;;;;;;15.87;100.00;101710.16;2069494;28;20189;-66
2023/05/19 00:11:13;;;;;;;12.60;11.03;;;;;;;15.81;100.00;101711.94;2066102;28;20181;-66
2023/05/19 00:12:14;;;;;;;14.77;11.30;;;;;;;15.84;100.00;101708.25;2072035;28;20451;-66
2023/05/19 00:13:15;;;;;;;14.27;11.57;;;;;;;15.56;100.00;101669.13;2068711;28;20184;-66
2023/05/19 00:14:15;;;;;;;12.90;10.80;;;;;;;15.38;100.00;101655.66;2073175;28;20448;-66
2023/05/19 00:15:16;;;;;;;15.60;10.87;;;;;;;15.74;100.00;101703.78;2066806;28;20193;-66
2023/05/19 00:16:17;;;;;;;12.63;11.33;;;;;;;15.43;100.00;101659.94;2072937;28;20218;-66
2023/05/19 00:17:19;;;;;;;12.57;10.60;;;;;;;15.69;100.00;101707.09;2069337;28;20190;-66
2023/05/19 00:18:19;;;;;;;12.27;10.80;;;;;;;15.70;100.00;101703.06;2072335;28;20192;-66
2023/05/19 00:19:20;;;;;;;14.20;11.30;;;;;;;15.74;100.00;101708.56;2069995;28;20455;-66
2023/05/19 00:20:21;;;;;;;12.50;11.20;;;;;;;15.67;100.00;101719.94;2065073;28;20268;-66
2023/05/19 00:21:22;;;;;;;13.97;11.23;;;;;;;15.61;100.00;101704.91;2072233;28;20427;-66
2023/05/19 00:22:22;;;;;;;13.60;10.60;;;;;;;15.63;100.00;101708.84;2072127;28;20196;-66
2023/05/19 00:23:23;;;;;;;11.97;10.77;;;;;;;15.63;100.00;101699.69;2069868;28;20555;-66
2023/05/19 00:24:23;;;;;;;12.03;10.83;;;;;;;15.60;100.00;101697.75;2073066;28;20192;-66
2023/05/19 00:25:24;;;;;;;13.23;10.93;;;;;;;15.61;100.00;101708.50;2070598;28;20248;-66
2023/05/19 00:26:26;;;;;;;13.97;11.10;;;;;;;15.60;100.00;101708.94;2073047;28;20181;-66
2023/05/19 00:27:26;;;;;;;14.20;10.90;;;;;;;15.51;100.00;101717.97;2072469;28;20448;-66
2023/05/19 00:28:27;;;;;;;12.17;10.73;;;;;;;15.48;100.00;101709.69;2072669;28;20428;-66
2023/05/19 00:29:28;;;;;;;13.43;10.70;;;;;;;15.48;100.00;101718.06;2071318;28;20177;-66
2023/05/19 00:30:29;;;;;;;12.70;11.23;;;;;;;15.42;100.00;101705.84;2065324;28;20176;-66
2023/05/19 00:31:30;;;;;;;13.23;10.80;;;;;;;15.41;100.00;101718.22;2070845;28;20197;-66
2023/05/19 00:32:30;;;;;;;13.73;11.07;;;;;;;15.38;100.00;101713.53;2072459;28;20456;-66
2023/05/19 00:33:34;;;;;;;18.70;11.07;;;;;;;15.37;100.00;101721.13;2072106;28;20516;-66
2023/05/19 00:34:35;;;;;;;11.53;10.27;;;;;;;15.35;100.00;101714.41;2072791;28;20658;-66
2023/05/19 00:35:35;;;;;;;14.83;10.90;;;;;;;15.34;100.00;101716.44;2072314;28;20880;-66
2023/05/19 00:36:35;;;;;;;15.50;11.63;;;;;;;15.29;100.00;101711.34;2072901;28;20279;-66
2023/05/19 00:37:36;;;;;;;16.70;11.47;;;;;;;15.25;100.00;101707.84;2072942;28;20181;-66
2023/05/19 00:38:37;;;;;;;13.57;11.00;;;;;;;15.34;100.00;101716.44;2070118;28;20178;-66
2023/05/19 00:39:37;;;;;;;12.60;11.23;;;;;;;15.37;100.00;101723.91;2071459;28;20561;-66
2023/05/19 00:40:38;;;;;;;16.00;11.60;;;;;;;14.64;100.00;101623.28;2071186;28;20487;-66
2023/05/19 00:41:39;;;;;;;12.97;10.90;;;;;;;15.40;100.00;101725.84;2072674;28;20192;-66
2023/05/19 00:42:40;;;;;;;14.87;10.80;;;;;;;15.38;100.00;101731.06;2072077;28;20224;-66
2023/05/19 00:43:41;;;;;;;17.03;11.30;;;;;;;15.37;100.00;101717.56;2072635;28;20239;-66
2023/05/19 00:44:41;;;;;;;18.43;11.07;;;;;;;15.34;100.00;101726.81;2072306;28;20444;-66
2023/05/19 00:45:42;;;;;;;14.87;10.47;;;;;;;15.31;100.00;101724.88;2071229;28;20678;-66
2023/05/19 00:46:42;;;;;;;15.03;11.27;;;;;;;15.33;100.00;101728.84;2064744;28;20179;-66
2023/05/19 00:47:43;;;;;;;14.43;10.93;;;;;;;15.37;100.00;101725.94;2064817;28;20202;-66
2023/05/19 00:48:44;;;;;;;15.87;11.20;;;;;;;15.28;100.00;101718.16;2070174;28;20276;-66
2023/05/19 00:49:44;;;;;;;15.20;11.20;;;;;;;15.28;100.00;101726.53;2073237;28;20382;-66
2023/05/19 00:50:45;;;;;;;15.80;10.80;;;;;;;15.28;100.00;101718.16;2072224;28;20451;-66
2023/05/19 00:51:46;;;;;;;16.03;10.27;;;;;;;15.27;100.00;101724.94;2068362;28;20194;-66
2023/05/19 00:52:46;;;;;;;16.00;10.57;;;;;;;15.24;100.00;101713.88;2063958;28;20285;-66
2023/05/19 00:53:49;;;;;;;13.17;10.73;;;;;;;15.23;100.00;101715.91;2069774;28;20269;-66
2023/05/19 00:54:51;;;;;;;17.93;11.10;;;;;;;15.20;100.00;101719.56;2071426;28;20663;-66
2023/05/19 00:55:52;;;;;;;17.07;10.83;;;;;;;15.20;100.00;101721.53;2067116;28;20468;-66
2023/05/19 00:56:54;;;;;;;16.30;10.07;;;;;;;14.92;100.00;101694.34;2064849;28;20432;-66
2023/05/19 00:57:57;;;;;;;12.57;10.33;;;;;;;15.07;100.00;101701.16;2066670;28;20261;-66
2023/05/19 00:58:58;;;;;;;12.13;10.37;;;;;;;15.07;100.00;101715.88;2072357;28;20946;-66
2023/05/19 00:59:59;;;;;;;18.90;10.90;;;;;;;15.05;100.00;101704.38;2065475;28;20797;-66
2023/05/19 01:01:03;;;;;;;13.27;10.57;;;;;;;15.11;100.00;101713.03;2067983;28;20189;-66
2023/05/19 01:02:04;;;;;;;11.70;10.27;;;;;;;15.14;100.00;101714.91;2071239;28;20450;-66
2023/05/19 01:03:11;;;;;;;12.77;10.70;;;;;;;15.13;100.00;101716.16;2072092;28;20444;-66
2023/05/19 01:04:15;;;;;;;12.63;10.00;;;;;;;15.12;100.00;101720.94;2072537;28;20190;-66
2023/05/19 01:05:16;;;;;;;13.83;10.40;;;;;;;15.11;100.00;101719.38;2070588;28;20421;-66
2023/05/19 01:06:17;;;;;;;12.13;10.60;;;;;;;15.10;100.00;101720.59;2070316;28;20459;-66
2023/05/19 01:07:18;;;;;;;11.87;10.67;;;;;;;15.07;100.00;101715.13;2071840;28;20232;-66
2023/05/19 01:08:19;;;;;;;13.87;10.47;;;;;;;15.07;100.00;101721.47;2071766;28;21092;-66
2023/05/19 01:09:21;;;;;;;17.10;9.87;;;;;;;14.63;100.00;101643.25;2071445;28;20232;-66
2023/05/19 01:10:21;;;;;;;14.27;10.60;;;;;;;15.08;100.00;101716.69;2072558;28;20276;-66
2023/05/19 01:11:22;;;;;;;14.20;10.33;;;;;;;14.97;100.00;101702.19;2069941;28;21166;-66
2023/05/19 01:12:22;;;;;;;13.67;11.23;;;;;;;15.09;100.00;101718.25;2071956;28;20651;-66
2023/05/19 01:13:23;;;;;;;11.50;10.17;;;;;;;14.65;100.00;101652.75;2071531;28;20552;-66
2023/05/19 01:14:23;;;;;;;11.57;10.07;;;;;;;14.99;100.00;101714.50;2072623;28;20176;-66
2023/05/19 01:15:26;;;;;;;13.60;10.07;;;;;;;15.08;100.00;101716.69;2072502;28;20178;-66
2023/05/19 01:16:34;;;;;;;14.70;9.73;;;;;;;14.71;100.00;101662.16;2072289;28;20181;-66
2023/05/19 01:17:48;;;;;;;12.70;10.13;;;;;;;15.12;100.00;101720.16;2067528;28;20826;-66
2023/05/19 01:19:13;;;;;;;15.17;10.63;;;;;;;15.13;100.00;101705.78;2068955;28;21140;-66
2023/05/19 01:20:29;;;;;;;12.90;10.60;;;;;;;14.73;100.00;101653.34;2063320;28;20930;-66
2023/05/19 01:21:50;;;;;;;15.53;10.50;;;;;;;14.93;100.00;101693.13;2067864;28;20445;-66
2023/05/19 01:23:04;;;;;;;13.70;10.20;;;;;;;15.06;100.00;101710.75;2064060;28;20512;-66
2023/05/19 01:24:48;;;;;;;17.83;10.90;;;;;;;14.97;100.00;101707.78;2065742;28;21007;-66
2023/05/19 01:26:10;;;;;;;12.53;10.60;;;;;;;14.45;100.00;101612.97;2072881;28;20913;-66
2023/05/19 01:27:35;;;;;;;13.50;10.30;;;;;;;15.04;100.00;101707.59;2072386;28;20404;-66
2023/05/19 01:28:56;;;;;;;12.77;10.33;;;;;;;15.04;100.00;101711.19;2072480;28;20448;-66
2023/05/19 01:30:32;;;;;;;13.33;10.43;;;;;;;14.95;100.00;101707.41;2069871;28;20428;-66
2023/05/19 01:31:35;;;;;;;11.53;10.33;;;;;;;14.97;100.00;101718.94;2061306;28;20444;-66
2023/05/19 01:32:39;;;;;;;12.87;10.20;;;;;;;14.91;100.00;101706.75;2069950;28;20864;-66
2023/05/19 01:33:42;;;;;;;13.77;9.90;;;;;;;14.92;100.00;101706.31;2067288;28;20425;-66
2023/05/19 01:34:47;;;;;;;11.43;10.23;;;;;;;14.89;100.00;101709.97;2064528;28;20437;-66
2023/05/19 01:35:49;;;;;;;13.93;10.27;;;;;;;14.82;100.00;101715.72;2066614;28;20978;-66
2023/05/19 01:36:52;;;;;;;14.90;10.10;;;;;;;14.43;100.00;101651.69;2065578;28;20447;-66
2023/05/19 01:37:55;;;;;;;13.00;10.43;;;;;;;14.84;100.00;101707.69;2069138;28;20428;-66
2023/05/19 01:38:58;;;;;;;11.03;9.93;;;;;;;14.81;100.00;101716.16;2072199;28;20436;-66
2023/05/19 01:39:59;;;;;;;11.87;10.00;;;;;;;14.84;100.00;101718.06;2070977;28;20452;-66
2023/05/19 01:41:02;;;;;;;11.13;10.00;;;;;;;14.73;100.00;101695.22;2071258;28;20516;-66
2023/05/19 01:42:04;;;;;;;15.20;10.10;;;;;;;14.28;100.00;101639.28;2071824;28;20428;-66
2023/05/19 01:43:08;;;;;;;14.13;10.83;;;;;;;14.83;100.00;101719.28;2071670;28;20424;-66
2023/05/19 01:44:08;;;;;;;12.33;10.23;;;;;;;14.87;100.00;101720.00;2072493;28;20973;-66
2023/05/19 01:45:10;;;;;;;11.80;10.60;;;;;;;14.90;100.00;101721.94;2072394;28;20428;-66
2023/05/19 01:46:11;;;;;;;15.53;10.50;;;;;;;14.39;100.00;101633.47;2067855;28;20255;-66
2023/05/19 01:47:13;;;;;;;13.57;9.97;;;;;;;14.97;100.00;101716.94;2071696;28;20464;-66
2023/05/19 01:48:14;;;;;;;13.50;9.73;;;;;;;14.99;100.00;101734.03;2072291;28;20229;-66
2023/05/19 01:49:14;;;;;;;11.60;10.37;;;;;;;14.98;100.00;101714.94;2071610;28;20527;-66
2023/05/19 01:50:15;;;;;;;12.83;10.00;;;;;;;14.93;100.00;101699.50;2075841;28;20579;-66
2023/05/19 01:51:15;;;;;;;11.33;10.13;;;;;;;15.02;100.00;101716.41;2071076;28;20568;-66
2023/05/19 01:52:16;;;;;;;12.23;10.07;;;;;;;14.05;100.00;101558.56;2070796;28;20180;-66
2023/05/19 01:53:16;;;;;;;12.70;10.33;;;;;;;15.07;100.00;101706.72;2064378;28;20232;-66
2023/05/19 01:54:17;;;;;;;13.03;10.40;;;;;;;15.07;100.00;101715.88;2070414;28;20239;-66
2023/05/19 01:55:18;;;;;;;12.37;9.60;;;;;;;14.99;100.00;101696.97;2072133;28;20280;-66
2023/05/19 01:56:32;;;;;;;12.87;10.07;;;;;;;15.09;100.00;101713.44;2069641;28;20570;-66
2023/05/19 01:57:57;;;;;;;11.40;9.57;;;;;;;15.12;100.00;101714.59;2068785;28;20578;-66
2023/05/19 01:59:07;;;;;;;12.93;10.27;;;;;;;15.13;100.00;101710.56;2067732;28;20456;-66
2023/05/19 02:00:15;;;;;;;11.93;10.20;;;;;;;15.10;100.00;101711.44;2064352;28;20410;-66
2023/05/19 02:01:38;;;;;;;12.50;9.90;;;;;;;15.05;100.00;101712.75;2066438;28;20464;-66
2023/05/19 02:02:59;;;;;;;12.00;9.40;;;;;;;15.06;100.00;101717.09;2063603;28;20475;-66
2023/05/19 02:04:23;;;;;;;13.50;9.97;;;;;;;14.79;100.00;101690.66;2067866;28;20972;-66
2023/05/19 02:05:33;;;;;;;12.87;9.30;;;;;;;15.01;100.00;101711.28;2067011;28;21018;-66
2023/05/19 02:06:58;;;;;;;14.33;9.67;;;;;;;15.02;100.00;101721.22;2069163;28;20970;-66
2023/05/19 02:08:13;;;;;;;15.57;9.67;;;;;;;15.00;100.00;101724.44;2073975;28;20564;-66
2023/05/19 02:09:39;;;;;;;11.37;8.97;;;;;;;14.99;100.00;101722.06;2070879;28;20544;-66
2023/05/19 02:10:44;;;;;;;12.40;9.50;;;;;;;14.99;100.00;101724.88;2077333;28;20427;-66
2023/05/19 02:12:02;;;;;;;19.40;9.80;;;;;;;14.99;100.00;101722.88;2071903;28;20420;-66
2023/05/19 02:13:05;;;;;;;15.33;9.93;;;;;;;14.93;100.00;101749.75;2070362;28;20416;-66
2023/05/19 02:14:45;;;;;;;13.33;9.83;;;;;;;14.92;100.00;101725.84;2072898;28;20427;-66
2023/05/19 02:15:47;;;;;;;13.17;9.67;;;;;;;14.91;100.00;101734.66;2068512;28;20542;-66
2023/05/19 02:16:47;;;;;;;13.83;10.10;;;;;;;14.27;100.00;101631.34;2068078;28;20984;-66
2023/05/19 02:17:53;;;;;;;13.33;9.40;;;;;;;14.88;100.00;101721.56;2068710;28;20878;-66
2023/05/19 02:18:55;;;;;;;15.23;10.20;;;;;;;14.86;100.00;101729.59;2066200;28;20200;-66
2023/05/19 02:19:55;;;;;;;11.73;9.80;;;;;;;14.83;100.00;101734.03;2070977;28;20456;-66
2023/05/19 02:20:56;;;;;;;13.20;9.90;;;;;;;14.81;100.00;101730.09;2071200;28;20799;-66
2023/05/19 02:21:56;;;;;;;15.13;9.30;;;;;;;14.67;100.00;101713.69;2070624;28;20269;-66
2023/05/19 02:22:56;;;;;;;17.97;10.43;;;;;;;14.48;100.00;101683.84;2071075;28;20716;-66
2023/05/19 02:23:57;;;;;;;14.00;9.70;;;;;;;14.43;100.00;101674.00;2072198;28;20250;-66
2023/05/19 02:24:57;;;;;;;14.10;9.70;;;;;;;14.83;100.00;101738.81;2066891;28;20194;-66
2023/05/19 02:25:58;;;;;;;12.53;10.00;;;;;;;14.78;100.00;101742.94;2071900;28;20254;-66
2023/05/19 02:26:59;;;;;;;14.37;9.67;;;;;;;14.79;100.00;101744.50;2071285;28;20263;-66
2023/05/19 02:27:59;;;;;;;12.83;10.63;;;;;;;14.09;100.00;101645.66;2072076;28;20205;-66
2023/05/19 02:29:00;;;;;;;12.23;10.30;;;;;;;14.73;100.00;101748.22;2071332;28;20424;-66
2023/05/19 02:30:00;;;;;;;11.43;10.20;;;;;;;14.77;100.00;101746.94;2062761;28;20193;-67
2023/05/19 02:31:04;;;;;;;12.70;10.00;;;;;;;14.79;100.00;101746.47;2075653;28;20251;-67
2023/05/19 02:32:05;;;;;;;14.07;9.97;;;;;;;14.79;100.00;101749.28;2064378;28;20624;-67
2023/05/19 02:33:06;;;;;;;17.83;9.80;;;;;;;14.78;100.00;101747.72;2063565;28;20448;-67
2023/05/19 02:34:07;;;;;;;12.37;10.27;;;;;;;14.53;100.00;101716.78;2068675;28;20444;-67
2023/05/19 02:35:08;;;;;;;12.77;10.40;;;;;;;14.75;100.00;101746.56;2071803;28;20694;-67
2023/05/19 02:36:08;;;;;;;13.63;10.40;;;;;;;14.75;100.00;101748.59;2069201;28;20431;-67
2023/05/19 02:37:09;;;;;;;15.53;10.03;;;;;;;14.76;100.00;101753.72;2071855;28;20193;-66
2023/05/19 02:38:09;;;;;;;18.63;9.10;;;;;;;14.58;100.00;101716.28;2079073;28;20677;-67
2023/05/19 02:39:11;;;;;;;14.83;10.00;;;;;;;14.17;100.00;101660.22;2066520;28;20580;-66
2023/05/19 02:40:11;;;;;;;10.87;9.60;;;;;;;14.79;100.00;101757.66;2070213;28;20664;-66
2023/05/19 02:41:11;;;;;;;14.87;10.20;;;;;;;14.80;100.00;101753.66;2065515;28;20860;-67
2023/05/19 02:42:13;;;;;;;12.93;9.63;;;;;;;14.76;100.00;101752.94;2071687;28;20681;-67
2023/05/19 02:43:13;;;;;;;10.83;9.67;;;;;;;14.71;100.00;101759.81;2067403;28;20283;-66
2023/05/19 02:44:14;;;;;;;14.87;10.03;;;;;;;14.78;100.00;101759.66;2067212;28;20953;-66
2023/05/19 02:45:15;;;;;;;16.73;9.83;;;;;;;14.82;100.00;101756.78;2069735;28;20192;-67
2023/05/19 02:46:15;;;;;;;14.03;10.03;;;;;;;14.86;100.00;101751.91;2064025;28;20183;-66
2023/05/19 02:47:15;;;;;;;13.27;9.97;;;;;;;14.69;100.00;101727.97;2072242;28;20180;-67
2023/05/19 02:48:16;;;;;;;10.90;9.63;;;;;;;14.87;100.00;101745.91;2064312;28;20216;-67
2023/05/19 02:49:16;;;;;;;12.37;9.60;;;;;;;14.89;100.00;101745.44;2066248;28;20275;-66
2023/05/19 02:50:16;;;;;;;12.30;9.93;;;;;;;14.92;100.00;101758.53;2068302;28;20729;-67
2023/05/19 02:51:17;;;;;;;11.27;8.83;;;;;;;14.84;100.00;101729.22;2063686;28;20656;-67
2023/05/19 02:52:17;;;;;;;13.47;9.50;;;;;;;14.51;100.00;101683.75;2068336;28;20202;-66
2023/05/19 02:53:18;;;;;;;11.37;9.63;;;;;;;14.87;100.00;101731.94;2063321;28;20187;-67
2023/05/19 02:54:18;;;;;;;13.20;9.70;;;;;;;15.00;100.00;101751.56;2069915;28;20299;-66
2023/05/19 02:55:18;;;;;;;11.00;9.57;;;;;;;14.89;100.00;101735.09;2064073;28;20321;-67
2023/05/19 02:56:20;;;;;;;10.60;9.07;;;;;;;15.02;100.00;101760.31;2064323;28;20301;-67
2023/05/19 02:57:20;;;;;;;9.70;8.70;;;;;;;14.32;100.00;101644.78;2072008;28;20662;-66
2023/05/19 02:58:21;;;;;;;10.23;9.23;;;;;;;15.06;100.00;101752.63;2069795;28;20817;-67
2023/05/19 02:59:23;;;;;;;11.47;8.60;;;;;;;15.01;100.00;101758.75;2071210;28;20651;-67
2023/05/19 03:00:43;;;;;;;13.67;9.47;;;;;;;14.79;100.00;101718.56;2070939;28;20620;-67
2023/05/19 03:01:44;;;;;;;12.10;9.60;;;;;;;15.01;100.00;101759.50;2072398;28;20458;-67
2023/05/19 03:02:44;;;;;;;10.80;9.23;;;;;;;15.02;100.00;101760.31;2072603;28;20464;-67
2023/05/19 03:03:45;;;;;;;11.70;9.20;;;;;;;15.02;100.00;101760.31;2073130;28;20274;-67
2023/05/19 03:04:45;;;;;;;12.83;9.43;;;;;;;14.69;100.00;101702.88;2073469;28;20193;-67
2023/05/19 03:05:47;;;;;;;10.70;9.60;;;;;;;15.01;100.00;101756.72;2072941;28;20737;-67
2023/05/19 03:06:47;;;;;;;12.40;9.53;;;;;;;15.02;100.00;101754.72;2068930;28;20188;-67
2023/05/19 03:07:47;;;;;;;13.00;10.23;;;;;;;14.98;100.00;101754.81;2073203;28;20554;-67
2023/05/19 03:08:48;;;;;;;11.97;9.37;;;;;;;14.98;100.00;101760.41;2067002;28;20201;-67
2023/05/19 03:09:49;;;;;;;11.47;9.63;;;;;;;14.93;100.00;101748.94;2070911;28;20251;-67
2023/05/19 03:10:49;;;;;;;11.10;9.17;;;;;;;14.95;100.00;101754.88;2068488;28;20209;-66
2023/05/19 03:11:50;;;;;;;15.80;10.90;;;;;;;14.95;100.00;101769.63;2069586;28;20184;-67
2023/05/19 03:12:50;;;;;;;11.27;9.40;;;;;;;14.94;100.00;101756.09;2072299;28;20242;-67
2023/05/19 03:13:50;;;;;;;17.70;10.10;;;;;;;14.96;100.00;101768.41;2076687;28;20212;-66
2023/05/19 03:14:51;;;;;;;13.30;9.53;;;;;;;14.90;100.00;101763.78;2073552;28;20209;-66
2023/05/19 03:15:51;;;;;;;12.63;9.47;;;;;;;14.99;100.00;101759.16;2073166;28;20206;-67
2023/05/19 03:16:52;;;;;;;14.47;9.37;;;;;;;15.00;100.00;101766.31;2073415;28;20189;-66
2023/05/19 03:17:52;;;;;;;11.40;9.97;;;;;;;14.98;100.00;101754.00;2073563;28;20565;-66
2023/05/19 03:18:54;;;;;;;12.87;9.43;;;;;;;14.98;100.00;101767.97;2073402;28;20738;-67
2023/05/19 03:20:14;;;;;;;13.90;10.10;;;;;;;14.77;100.00;101735.78;2072264;28;20243;-67
2023/05/19 03:21:15;;;;;;;11.90;10.00;;;;;;;14.88;100.00;101767.00;2064780;28;20421;-66
2023/05/19 03:22:17;;;;;;;11.97;9.50;;;;;;;14.92;100.00;101773.31;2071267;28;20486;-67
2023/05/19 03:23:17;;;;;;;13.57;9.90;;;;;;;14.93;100.00;101772.06;2070568;28;20216;-66
2023/05/19 03:24:18;;;;;;;15.70;9.90;;;;;;;14.94;100.00;101772.84;2066556;28;20411;-66
2023/05/19 03:25:18;;;;;;;13.43;9.77;;;;;;;14.94;100.00;101776.44;2073016;28;20192;-67
2023/05/19 03:26:19;;;;;;;12.73;9.87;;;;;;;14.92;100.00;101778.88;2081804;28;20177;-67
2023/05/19 03:27:20;;;;;;;17.60;10.63;;;;;;;14.95;100.00;101782.78;2074543;28;20208;-67
2023/05/19 03:28:22;;;;;;;12.50;9.33;;;;;;;14.96;100.00;101782.34;2073283;28;20202;-67
2023/05/19 03:29:22;;;;;;;15.93;10.17;;;;;;;14.97;100.00;101786.72;2071117;28;20753;-67
2023/05/19 03:30:22;;;;;;;16.30;10.17;;;;;;;14.31;100.00;101673.88;2075914;28;20434;-67
2023/05/19 03:31:23;;;;;;;14.83;9.77;;;;;;;14.40;100.00;101691.59;2069423;28;20575;-67
2023/05/19 03:32:23;;;;;;;13.03;10.03;;;;;;;14.96;100.00;101776.00;2079286;28;20200;-67
2023/05/19 03:33:26;;;;;;;15.10;11.37;;;;;;;14.87;100.00;101754.28;2079449;28;20261;-66
2023/05/19 03:34:27;;;;;;;14.17;9.87;;;;;;;15.01;100.00;101773.47;2073843;28;20183;-67
2023/05/19 03:35:27;;;;;;;18.50;11.77;;;;;;;15.02;100.00;101774.25;2073212;28;20431;-67
2023/05/19 03:36:31;;;;;;;12.13;10.40;;;;;;;15.01;100.00;101773.47;2065715;28;20208;-66
2023/05/19 03:37:32;;;;;;;11.97;9.77;;;;;;;14.83;100.00;101744.41;2074768;28;20200;-67
2023/05/19 03:38:32;;;;;;;13.50;11.00;;;;;;;15.09;100.00;101774.09;2075415;28;20439;-67
2023/05/19 03:39:32;;;;;;;16.43;10.33;;;;;;;15.12;100.00;101764.84;2071624;28;20448;-67
2023/05/19 03:40:33;;;;;;;18.60;10.73;;;;;;;15.14;100.00;101777.16;2072449;28;20238;-67
2023/05/19 03:41:33;;;;;;;15.20;9.87;;;;;;;15.17;100.00;101775.50;2072048;28;20195;-58
2023/05/19 03:42:34;;;;;;;5.73;4.10;;;;;;;15.88;100.00;101781.63;2054506;28;20239;-58
2023/05/19 03:43:35;;;;;;;9.63;8.57;;;;;;;16.01;100.00;101785.25;2063728;28;20213;-58
2023/05/19 03:44:36;;;;;;;4.17;3.77;;;;;;;16.39;100.00;101786.19;2068911;28;20862;-57
2023/05/19 03:45:36;;;;;;;8.87;7.80;;;;;;;16.53;100.00;101796.16;2078350;28;20186;-57
2023/05/19 03:46:36;;;;;;;7.77;6.80;;;;;;;16.61;100.00;101783.53;2079779;28;20204;-57
2023/05/19 03:47:37;;;;;;;6.37;4.40;;;;;;;16.88;100.00;101785.94;2069553;28;20201;-57
2023/05/19 03:48:37;;;;;;;6.73;4.93;;;;;;;17.26;100.00;101793.09;2072288;28;20290;-57
2023/05/19 03:49:38;;;;;;;5.77;4.80;;;;;;;17.52;100.00;101789.78;2070613;28;20180;-57
2023/05/19 03:50:38;;;;;;;8.73;7.00;;;;;;;17.78;100.00;101782.88;2064980;28;20196;-57
2023/05/19 03:51:38;;;;;;;7.63;4.67;;;;;;;17.89;100.00;101779.72;2064336;28;21311;-57
2023/05/19 03:52:39;;;;;;;7.43;6.20;;;;;;;18.07;100.00;101779.84;2065544;28;20208;-57
2023/05/19 03:53:40;;;;;;;8.50;5.40;;;;;;;17.91;100.00;101725.97;2068081;28;20433;-57
2023/05/19 03:54:41;;;;;;;7.10;5.40;;;;;;;18.38;100.00;101769.47;2065244;28;20198;-57
2023/05/19 03:55:43;;;;;;;7.80;5.37;;;;;;;18.43;100.00;101770.94;2070499;28;20207;-57
2023/05/19 03:56:43;;;;;;;15.17;7.23;;;;;;;18.35;100.00;101766.81;2070292;28;20556;-58
2023/05/19 03:57:44;;;;;;;7.37;5.30;;;;;;;18.35;100.00;101758.41;2064850;28;20437;-58
2023/05/19 03:58:45;;;;;;;9.30;5.60;;;;;;;18.49;100.00;101769.88;2063955;28;20679;-57
2023/05/19 03:59:46;;;;;;;9.83;5.83;;;;;;;18.54;100.00;101757.25;2068549;28;20263;-57
2023/05/19 04:00:46;;;;;;;12.50;5.80;;;;;;;18.65;100.00;101764.03;2053801;28;20513;-58
2023/05/19 04:01:47;;;;;;;9.30;5.30;;;;;;;18.78;100.00;101772.38;2070637;28;20264;-57
2023/05/19 04:02:47;;;;;;;7.67;5.30;;;;;;;18.84;100.00;101765.66;2068523;28;20201;-58
2023/05/19 04:03:48;;;;;;;7.47;5.50;;;;;;;18.85;100.00;101764.44;2063603;28;20426;-58
2023/05/19 04:04:49;;;;;;;6.87;4.93;;;;;;;18.48;100.00;101723.38;2069693;28;20194;-58
2023/05/19 04:05:50;;;;;;;8.13;5.23;;;;;;;18.81;100.00;101769.41;2069943;28;20204;-58
2023/05/19 04:06:51;;;;;;;9.17;5.57;;;;;;;18.56;100.00;101721.88;2070239;28;20440;-58
2023/05/19 04:07:51;;;;;;;7.13;5.10;;;;;;;18.63;100.00;101738.44;2067840;28;20484;-58
2023/05/19 04:08:52;;;;;;;14.80;7.20;;;;;;;18.90;100.00;101765.84;2062876;28;20172;-58
2023/05/19 04:09:52;;;;;;;10.17;6.80;;;;;;;18.94;100.00;101772.13;2071087;28;20192;-58
2023/05/19 04:10:52;;;;;;;6.43;5.83;;;;;;;18.92;100.00;101760.56;2067577;28;20276;-58
2023/05/19 04:11:53;;;;;;;8.50;5.57;;;;;;;18.98;100.00;101776.34;2064511;28;20662;-58
2023/05/19 04:12:53;;;;;;;7.67;5.50;;;;;;;19.01;100.00;101757.78;2064722;28;20263;-57
2023/05/19 04:13:54;;;;;;;10.77;6.10;;;;;;;19.03;100.00;101760.94;2066789;28;20274;-57
2023/05/19 04:14:55;;;;;;;8.20;5.73;;;;;;;19.09;100.00;101764.69;2071945;28;20212;-57
2023/05/19 04:15:55;;;;;;;7.23;6.10;;;;;;;19.03;100.00;101755.31;2068815;28;20189;-57
2023/05/19 04:16:56;;;;;;;11.97;6.20;;;;;;;19.13;100.00;101763.28;2065594;28;20572;-57
2023/05/19 04:17:56;;;;;;;8.57;5.83;;;;;;;19.16;100.00;101764.38;2065742;28;20280;-57
2023/05/19 04:18:57;;;;;;;7.90;6.20;;;;;;;18.77;100.00;101709.78;2069803;28;20225;-57
2023/05/19 04:19:57;;;;;;;9.93;6.40;;;;;;;19.22;100.00;101771.78;2069625;28;20313;-57
2023/05/19 04:20:57;;;;;;;9.37;7.37;;;;;;;18.60;100.00;101683.22;2069455;28;20311;-57
2023/05/19 04:21:58;;;;;;;10.63;6.17;;;;;;;19.12;100.00;101772.16;2065135;28;20186;-58
2023/05/19 04:22:58;;;;;;;8.40;6.33;;;;;;;19.10;100.00;101775.47;2070018;28;20199;-58
2023/05/19 04:23:59;;;;;;;11.10;7.73;;;;;;;19.07;100.00;101775.59;2067038;28;20197;-69
2023/05/19 04:24:59;;;;;;;8.90;7.60;;;;;;;19.01;100.00;101771.81;2074179;28;20200;-66
2023/05/19 04:26:00;;;;;;;10.40;7.63;;;;;;;18.88;100.00;101771.94;2070701;28;20731;-65
2023/05/19 04:27:01;;;;;;;11.77;8.00;;;;;;;18.34;100.00;101707.13;2062390;28;20177;-65
2023/05/19 04:28:01;;;;;;;9.53;8.30;;;;;;;18.54;100.00;101757.25;2072789;28;20464;-65
2023/05/19 04:29:03;;;;;;;9.20;7.60;;;;;;;18.61;100.00;101771.00;2066693;28;20205;-66
2023/05/19 04:30:05;;;;;;;10.70;8.20;;;;;;;18.50;100.00;101771.44;2069818;28;20197;-66
2023/05/19 04:31:09;;;;;;;10.40;8.40;;;;;;;18.22;100.00;101758.44;2066220;28;20449;-65
2023/05/19 04:32:10;;;;;;;13.63;9.20;;;;;;;18.27;100.00;101777.50;2067683;28;20862;-67
2023/05/19 04:33:12;;;;;;;19.00;10.27;;;;;;;17.92;100.00;101734.69;2068055;28;20495;-66
2023/05/19 04:34:12;;;;;;;12.63;8.80;;;;;;;18.16;100.00;101773.53;2067942;28;20185;-67
2023/05/19 04:35:14;;;;;;;13.53;9.03;;;;;;;18.10;100.00;101778.94;2069119;28;20958;-66
2023/05/19 04:36:17;;;;;;;12.43;8.70;;;;;;;18.07;100.00;101781.88;2067714;28;20241;-66
2023/05/19 04:37:18;;;;;;;10.00;8.40;;;;;;;17.99;100.00;101773.69;2064880;28;20442;-65
2023/05/19 04:38:20;;;;;;;11.60;8.60;;;;;;;17.93;100.00;101771.97;2071181;28;20913;-66
2023/05/19 04:39:21;;;;;;;12.23;8.53;;;;;;;17.92;100.00;101776.78;2062783;28;20439;-66
2023/05/19 04:40:22;;;;;;;9.73;8.50;;;;;;;17.86;100.00;101786.22;2073144;28;20854;-64
2023/05/19 04:41:23;;;;;;;12.43;9.23;;;;;;;17.82;100.00;101787.59;2065891;28;20210;-65
2023/05/19 04:42:24;;;;;;;11.27;9.20;;;;;;;17.76;100.00;101778.94;2065578;28;20456;-66
2023/05/19 04:43:26;;;;;;;12.97;9.10;;;;;;;17.73;100.00;101790.28;2067573;28;20213;-66
2023/05/19 04:44:26;;;;;;;13.33;9.23;;;;;;;17.72;100.00;101792.34;2063412;28;20503;-65
2023/05/19 04:45:27;;;;;;;12.13;8.67;;;;;;;17.55;100.00;101770.53;2069933;28;20494;-65